createdAt,value
2023-02-14T00:00:48.014Z,0.00
2023-02-14T00:01:48.001Z,0.00
2023-02-14T00:02:48.054Z,0.00
2023-02-14T00:03:47.975Z,0.00
2023-02-14T00:04:48.022Z,0.00
2023-02-14T00:05:47.959Z,0.00
2023-02-14T00:06:47.939Z,0.00
2023-02-14T00:07:47.928Z,0.00
2023-02-14T00:08:47.922Z,0.00
2023-02-14T00:09:47.928Z,0.00
2023-02-14T00:10:47.909Z,0.00
2023-02-14T00:11:47.884Z,0.00
2023-02-14T00:12:47.876Z,0.00
2023-02-14T00:13:47.879Z,0.00
2023-02-14T00:14:47.881Z,0.00
2023-02-14T00:15:47.902Z,0.00
2023-02-14T00:16:47.841Z,0.00
2023-02-14T00:17:47.820Z,0.00
2023-02-14T00:18:47.838Z,0.00
2023-02-14T00:19:47.808Z,0.00
2023-02-14T00:20:47.822Z,0.00
2023-02-14T00:21:47.782Z,0.00
2023-02-14T00:22:47.772Z,0.00
2023-02-14T00:23:47.764Z,0.00
2023-02-14T00:24:47.742Z,0.00
2023-02-14T00:25:47.731Z,0.00
2023-02-14T00:26:47.754Z,0.00
2023-02-14T00:27:47.716Z,0.00
2023-02-14T00:28:47.724Z,0.00
2023-02-14T00:29:47.693Z,0.00
2023-02-14T00:30:47.714Z,0.00
2023-02-14T00:31:47.702Z,0.00
2023-02-14T00:32:47.674Z,0.00
2023-02-14T00:33:47.643Z,0.00
2023-02-14T00:34:47.645Z,0.00
2023-02-14T00:35:47.630Z,0.00
2023-02-14T00:36:47.623Z,0.00
2023-02-14T00:37:47.643Z,0.00
2023-02-14T00:38:47.592Z,0.00
2023-02-14T00:39:47.593Z,0.00
2023-02-14T00:40:47.573Z,0.00
2023-02-14T00:41:47.556Z,0.00
2023-02-14T00:42:47.578Z,0.00
2023-02-14T00:43:47.544Z,0.00
2023-02-14T00:44:47.516Z,0.00
2023-02-14T00:45:47.536Z,0.00
2023-02-14T00:46:47.522Z,0.00
2023-02-14T00:47:47.562Z,0.00
2023-02-14T00:48:47.486Z,0.00
2023-02-14T00:49:47.509Z,0.00
2023-02-14T00:50:47.456Z,0.00
2023-02-14T00:51:47.448Z,0.00
2023-02-14T00:52:47.453Z,0.00
2023-02-14T00:53:47.426Z,0.00
2023-02-14T00:54:47.420Z,0.00
2023-02-14T00:55:47.415Z,0.00
2023-02-14T00:56:47.427Z,0.00
2023-02-14T00:57:47.381Z,0.00
2023-02-14T00:58:47.420Z,0.00
2023-02-14T00:59:47.357Z,0.00
2023-02-14T01:00:47.406Z,0.00
2023-02-14T01:01:47.337Z,0.00
2023-02-14T01:02:47.415Z,0.00
2023-02-14T01:03:47.352Z,0.00
2023-02-14T01:04:47.311Z,0.00
2023-02-14T01:05:47.296Z,0.00
2023-02-14T01:06:47.302Z,0.00
2023-02-14T01:07:47.274Z,0.00
2023-02-14T01:08:47.267Z,0.00
2023-02-14T01:09:47.283Z,0.00
2023-02-14T01:10:47.273Z,0.00
2023-02-14T01:11:47.220Z,0.00
2023-02-14T01:12:47.258Z,0.00
2023-02-14T01:13:47.201Z,0.00
2023-02-14T01:14:47.204Z,0.00
2023-02-14T01:15:47.179Z,0.00
2023-02-14T01:16:47.206Z,0.00
2023-02-14T01:17:47.163Z,0.00
2023-02-14T01:18:47.195Z,0.00
2023-02-14T01:19:47.140Z,0.00
2023-02-14T01:20:47.150Z,0.00
2023-02-14T01:21:47.110Z,0.00
2023-02-14T01:22:47.112Z,0.00
2023-02-14T01:23:47.094Z,0.00
2023-02-14T01:24:47.122Z,0.00
2023-02-14T01:25:47.064Z,0.00
2023-02-14T01:26:47.067Z,0.00
2023-02-14T01:27:47.042Z,0.00
2023-02-14T01:28:47.046Z,0.00
2023-02-14T01:29:47.052Z,0.00
2023-02-14T01:30:47.125Z,0.00
2023-02-14T01:31:47.025Z,0.00
2023-02-14T01:32:47.012Z,0.00
2023-02-14T01:33:46.982Z,0.00
2023-02-14T01:34:46.976Z,0.00
2023-02-14T01:35:46.963Z,0.00
2023-02-14T01:36:46.995Z,0.00
2023-02-14T01:37:46.955Z,0.00
2023-02-14T01:38:46.948Z,0.00
2023-02-14T01:39:46.916Z,0.00
2023-02-14T01:40:46.941Z,0.00
2023-02-14T01:41:46.901Z,0.00
2023-02-14T01:42:46.887Z,0.00
2023-02-14T01:43:46.878Z,0.00
2023-02-14T01:44:46.888Z,0.00
2023-02-14T01:45:46.936Z,0.00
2023-02-14T01:46:46.861Z,0.00
2023-02-14T01:47:46.875Z,0.00
2023-02-14T01:48:46.830Z,0.00
2023-02-14T01:49:46.809Z,0.00
2023-02-14T01:50:46.814Z,0.00
2023-02-14T01:51:46.795Z,0.00
2023-02-14T01:52:46.825Z,0.00
2023-02-14T01:53:46.775Z,0.00
2023-02-14T01:54:46.771Z,0.00
2023-02-14T01:55:46.791Z,0.00
2023-02-14T01:56:46.742Z,0.00
2023-02-14T01:57:46.774Z,0.00
2023-02-14T01:58:46.722Z,0.00
2023-02-14T01:59:46.692Z,0.00
2023-02-14T02:00:46.748Z,0.00
2023-02-14T02:01:46.713Z,0.00
2023-02-14T02:02:46.702Z,0.00
2023-02-14T02:03:46.684Z,0.00
2023-02-14T02:04:46.692Z,0.00
2023-02-14T02:05:46.665Z,0.00
2023-02-14T02:06:46.655Z,0.00
2023-02-14T02:07:46.624Z,0.00
2023-02-14T02:08:46.645Z,0.00
2023-02-14T02:09:46.625Z,0.00
2023-02-14T02:10:46.596Z,0.00
2023-02-14T02:11:46.600Z,0.00
2023-02-14T02:12:46.580Z,0.00
2023-02-14T02:13:46.564Z,0.00
2023-02-14T02:14:46.575Z,0.00
2023-02-14T02:15:46.535Z,0.00
2023-02-14T02:16:46.639Z,0.00
2023-02-14T02:17:46.516Z,0.00
2023-02-14T02:18:46.522Z,0.00
2023-02-14T02:19:46.519Z,0.00
2023-02-14T02:20:46.513Z,0.00
2023-02-14T02:21:46.498Z,0.00
2023-02-14T02:22:46.493Z,0.00
2023-02-14T02:23:46.447Z,0.00
2023-02-14T02:24:46.433Z,0.00
2023-02-14T02:25:46.426Z,0.00
2023-02-14T02:26:46.437Z,0.00
2023-02-14T02:27:46.411Z,0.00
2023-02-14T02:28:46.406Z,0.00
2023-02-14T02:29:46.387Z,0.00
2023-02-14T02:30:46.465Z,0.00
2023-02-14T02:31:46.489Z,0.00
2023-02-14T02:32:46.350Z,0.00
2023-02-14T02:33:46.348Z,0.00
2023-02-14T02:34:46.321Z,0.00
2023-02-14T02:35:46.507Z,0.00
2023-02-14T02:36:46.304Z,0.00
2023-02-14T02:37:46.314Z,0.00
2023-02-14T02:38:46.287Z,0.00
2023-02-14T02:39:46.279Z,0.00
2023-02-14T02:40:46.264Z,0.00
2023-02-14T02:41:46.270Z,0.00
2023-02-14T02:42:46.240Z,0.00
2023-02-14T02:43:46.256Z,0.00
2023-02-14T02:44:46.211Z,0.00
2023-02-14T02:45:46.234Z,0.00
2023-02-14T02:46:46.191Z,0.00
2023-02-14T02:47:46.186Z,0.00
2023-02-14T02:48:46.211Z,0.00
2023-02-14T02:49:46.346Z,0.00
2023-02-14T02:50:46.159Z,0.00
2023-02-14T02:51:46.140Z,0.00
2023-02-14T02:52:46.138Z,0.00
2023-02-14T02:53:46.137Z,0.00
2023-02-14T02:54:46.132Z,0.00
2023-02-14T02:55:46.117Z,0.00
2023-02-14T02:56:46.179Z,0.00
2023-02-14T02:57:46.079Z,0.00
2023-02-14T02:58:46.068Z,0.00
2023-02-14T02:59:46.063Z,0.00
2023-02-14T03:00:46.087Z,0.00
2023-02-14T03:01:46.064Z,0.00
2023-02-14T03:02:46.021Z,0.00
2023-02-14T03:03:46.023Z,0.00
2023-02-14T03:04:46.038Z,0.00
2023-02-14T03:05:45.996Z,0.00
2023-02-14T03:06:46.005Z,0.00
2023-02-14T03:07:45.975Z,0.00
2023-02-14T03:08:45.954Z,0.00
2023-02-14T03:09:45.965Z,0.00
2023-02-14T03:10:45.934Z,0.00
2023-02-14T03:11:45.927Z,0.00
2023-02-14T03:12:45.914Z,0.00
2023-02-14T03:13:45.920Z,0.00
2023-02-14T03:14:45.886Z,0.00
2023-02-14T03:15:49.949Z,0.00
2023-02-14T03:16:45.875Z,0.00
2023-02-14T03:17:45.892Z,0.00
2023-02-14T03:18:45.876Z,0.00
2023-02-14T03:19:45.836Z,0.00
2023-02-14T03:20:45.824Z,0.00
2023-02-14T03:21:45.838Z,0.00
2023-02-14T03:22:45.818Z,0.00
2023-02-14T03:23:45.826Z,0.00
2023-02-14T03:24:45.830Z,0.00
2023-02-14T03:25:45.790Z,0.00
2023-02-14T03:26:45.751Z,0.00
2023-02-14T03:27:46.047Z,0.00
2023-02-14T03:28:45.742Z,0.00
2023-02-14T03:29:45.730Z,0.00
2023-02-14T03:30:45.858Z,0.00
2023-02-14T03:31:45.788Z,0.00
2023-02-14T03:32:45.729Z,0.00
2023-02-14T03:33:45.679Z,0.00
2023-02-14T03:34:45.670Z,0.00
2023-02-14T03:35:45.673Z,0.00
2023-02-14T03:36:47.120Z,0.00
2023-02-14T03:37:45.688Z,0.00
2023-02-14T03:38:45.650Z,0.00
2023-02-14T03:39:45.626Z,0.00
2023-02-14T03:40:45.621Z,0.00
2023-02-14T03:41:45.704Z,0.00
2023-02-14T03:42:46.541Z,0.00
2023-02-14T03:43:45.614Z,0.00
2023-02-14T03:44:45.873Z,0.00
2023-02-14T03:45:45.560Z,0.00
2023-02-14T03:46:45.595Z,0.00
2023-02-14T03:47:45.532Z,0.00
2023-02-14T03:48:45.513Z,0.00
2023-02-14T03:49:45.562Z,0.00
2023-02-14T03:50:45.496Z,0.00
2023-02-14T03:51:46.457Z,0.00
2023-02-14T03:52:45.481Z,0.00
2023-02-14T03:53:45.462Z,0.00
2023-02-14T03:54:45.443Z,0.00
2023-02-14T03:55:45.473Z,0.00
2023-02-14T03:56:45.455Z,0.00
2023-02-14T03:57:45.419Z,0.00
2023-02-14T03:58:45.425Z,0.00
2023-02-14T03:59:45.415Z,0.00
2023-02-14T04:00:45.383Z,0.00
2023-02-14T04:01:45.465Z,0.00
2023-02-14T04:02:45.355Z,0.00
2023-02-14T04:03:45.406Z,0.00
2023-02-14T04:04:45.364Z,0.00
2023-02-14T04:05:45.333Z,0.00
2023-02-14T04:06:45.339Z,0.00
2023-02-14T04:07:45.313Z,0.00
2023-02-14T04:08:45.295Z,0.00
2023-02-14T04:09:45.339Z,0.00
2023-02-14T04:10:45.274Z,0.00
2023-02-14T04:11:45.273Z,0.00
2023-02-14T04:12:45.250Z,0.00
2023-02-14T04:13:45.248Z,0.00
2023-02-14T04:14:45.232Z,0.00
2023-02-14T04:15:45.269Z,0.00
2023-02-14T04:16:45.235Z,0.00
2023-02-14T04:17:45.195Z,0.00
2023-02-14T04:18:45.198Z,0.00
2023-02-14T04:19:45.191Z,0.00
2023-02-14T04:20:45.166Z,0.00
2023-02-14T04:21:45.171Z,0.00
2023-02-14T04:22:45.175Z,0.00
2023-02-14T04:23:45.138Z,0.00
2023-02-14T04:24:45.147Z,0.00
2023-02-14T04:25:45.175Z,0.00
2023-02-14T04:26:45.103Z,0.00
2023-02-14T04:27:45.087Z,0.00
2023-02-14T04:28:45.085Z,0.00
2023-02-14T04:29:45.057Z,0.00
2023-02-14T04:30:45.077Z,0.00
2023-02-14T04:31:45.139Z,0.00
2023-02-14T04:32:45.056Z,0.00
2023-02-14T04:33:45.049Z,0.00
2023-02-14T04:34:45.009Z,0.00
2023-02-14T04:35:45.004Z,0.00
2023-02-14T04:36:45.009Z,0.00
2023-02-14T04:37:44.974Z,0.00
2023-02-14T04:38:44.960Z,0.00
2023-02-14T04:39:44.963Z,0.00
2023-02-14T04:40:44.968Z,0.00
2023-02-14T04:41:44.937Z,0.00
2023-02-14T04:42:44.940Z,0.00
2023-02-14T04:43:44.908Z,0.00
2023-02-14T04:44:44.952Z,0.00
2023-02-14T04:45:44.921Z,0.00
2023-02-14T04:46:44.972Z,0.00
2023-02-14T04:47:45.480Z,0.00
2023-02-14T04:48:44.857Z,0.00
2023-02-14T04:49:45.825Z,0.00
2023-02-14T04:50:44.866Z,0.00
2023-02-14T04:51:44.837Z,0.00
2023-02-14T04:52:44.817Z,0.00
2023-02-14T04:53:44.822Z,0.00
2023-02-14T04:54:44.781Z,0.00
2023-02-14T04:55:44.778Z,0.00
2023-02-14T04:56:44.761Z,0.00
2023-02-14T04:57:44.749Z,0.00
2023-02-14T04:58:44.760Z,0.00
2023-02-14T04:59:44.741Z,0.00
2023-02-14T05:00:44.780Z,0.00
2023-02-14T05:01:44.774Z,0.00
2023-02-14T05:02:44.697Z,0.00
2023-02-14T05:03:44.745Z,0.00
2023-02-14T05:04:44.668Z,0.00
2023-02-14T05:05:44.691Z,0.00
2023-02-14T05:06:44.652Z,0.00
2023-02-14T05:07:45.621Z,0.00
2023-02-14T05:08:44.630Z,0.00
2023-02-14T05:09:44.646Z,0.00
2023-02-14T05:10:44.640Z,0.00
2023-02-14T05:11:44.603Z,0.00
2023-02-14T05:12:44.647Z,0.00
2023-02-14T05:13:44.593Z,0.00
2023-02-14T05:14:44.560Z,0.00
2023-02-14T05:15:44.581Z,0.00
2023-02-14T05:16:44.621Z,0.00
2023-02-14T05:17:44.529Z,0.00
2023-02-14T05:18:44.520Z,0.00
2023-02-14T05:19:44.534Z,0.00
2023-02-14T05:20:44.498Z,0.00
2023-02-14T05:21:44.522Z,0.00
2023-02-14T05:22:44.486Z,0.00
2023-02-14T05:23:44.471Z,0.00
2023-02-14T05:24:44.456Z,0.00
2023-02-14T05:25:45.454Z,0.00
2023-02-14T05:26:44.434Z,0.00
2023-02-14T05:27:44.428Z,0.00
2023-02-14T05:28:44.419Z,0.00
2023-02-14T05:29:44.406Z,0.00
2023-02-14T05:30:45.371Z,0.00
2023-02-14T05:31:44.415Z,0.00
2023-02-14T05:32:44.366Z,0.00
2023-02-14T05:33:44.412Z,0.00
2023-02-14T05:34:44.451Z,0.00
2023-02-14T05:35:44.338Z,0.00
2023-02-14T05:36:44.323Z,0.00
2023-02-14T05:37:44.316Z,0.00
2023-02-14T05:38:44.306Z,0.00
2023-02-14T05:39:44.509Z,0.00
2023-02-14T05:40:44.299Z,0.00
2023-02-14T05:41:44.265Z,0.00
2023-02-14T05:42:44.263Z,0.00
2023-02-14T05:43:44.243Z,0.00
2023-02-14T05:44:44.249Z,0.00
2023-02-14T05:45:44.369Z,0.00
2023-02-14T05:46:44.493Z,0.00
2023-02-14T05:47:44.228Z,0.00
2023-02-14T05:48:44.223Z,0.00
2023-02-14T05:49:44.192Z,0.00
2023-02-14T05:50:44.175Z,0.00
2023-02-14T05:51:44.162Z,0.00
2023-02-14T05:52:44.157Z,0.00
2023-02-14T05:53:44.145Z,0.00
2023-02-14T05:54:44.117Z,0.00
2023-02-14T05:55:44.431Z,0.00
2023-02-14T05:56:44.119Z,0.00
2023-02-14T05:57:44.121Z,0.00
2023-02-14T05:58:44.070Z,0.00
2023-02-14T05:59:44.883Z,0.00
2023-02-14T06:00:44.844Z,0.00
2023-02-14T06:01:44.113Z,0.00
2023-02-14T06:02:44.371Z,0.00
2023-02-14T06:03:44.034Z,0.00
2023-02-14T06:04:44.050Z,0.00
2023-02-14T06:05:44.024Z,0.00
2023-02-14T06:06:44.004Z,0.00
2023-02-14T06:07:44.989Z,0.00
2023-02-14T06:08:44.177Z,0.00
2023-02-14T06:09:43.976Z,0.00
2023-02-14T06:10:43.976Z,0.00
2023-02-14T06:11:44.069Z,0.00
2023-02-14T06:12:43.927Z,0.00
2023-02-14T06:13:44.218Z,0.00
2023-02-14T06:14:43.908Z,0.00
2023-02-14T06:15:43.920Z,0.00
2023-02-14T06:16:43.962Z,0.00
2023-02-14T06:17:43.884Z,0.00
2023-02-14T06:18:43.866Z,0.00
2023-02-14T06:19:43.872Z,0.00
2023-02-14T06:20:43.856Z,4.00
2023-02-14T06:21:43.934Z,4.00
2023-02-14T06:22:43.862Z,0.00
2023-02-14T06:23:43.857Z,0.00
2023-02-14T06:24:43.870Z,4.00
2023-02-14T06:25:43.874Z,0.00
2023-02-14T06:26:43.803Z,4.00
2023-02-14T06:27:43.776Z,4.00
2023-02-14T06:28:43.757Z,4.00
2023-02-14T06:29:43.899Z,4.00
2023-02-14T06:30:44.023Z,4.00
2023-02-14T06:31:43.789Z,12.00
2023-02-14T06:32:43.898Z,12.00
2023-02-14T06:33:45.151Z,12.00
2023-02-14T06:34:43.730Z,16.00
2023-02-14T06:35:43.911Z,16.00
2023-02-14T06:36:44.625Z,20.00
2023-02-14T06:37:43.657Z,20.00
2023-02-14T06:38:43.654Z,24.00
2023-02-14T06:39:44.800Z,28.00
2023-02-14T06:40:43.666Z,32.00
2023-02-14T06:41:43.623Z,36.00
2023-02-14T06:42:43.609Z,40.00
2023-02-14T06:43:43.600Z,44.00
2023-02-14T06:44:43.593Z,52.00
2023-02-14T06:45:44.500Z,60.00
2023-02-14T06:46:43.586Z,64.00
2023-02-14T06:47:43.553Z,72.00
2023-02-14T06:48:43.561Z,76.00
2023-02-14T06:49:43.536Z,84.00
2023-02-14T06:50:43.522Z,92.00
2023-02-14T06:51:43.513Z,96.00
2023-02-14T06:52:43.542Z,108.00
2023-02-14T06:53:43.484Z,116.00
2023-02-14T06:54:43.514Z,124.00
2023-02-14T06:55:43.969Z,132.00
2023-02-14T06:56:43.449Z,140.00
2023-02-14T06:57:43.455Z,152.00
2023-02-14T06:58:43.437Z,160.00
2023-02-14T06:59:44.363Z,172.00
2023-02-14T07:00:43.443Z,180.00
2023-02-14T07:01:43.494Z,188.00
2023-02-14T07:02:43.488Z,200.00
2023-02-14T07:03:43.530Z,212.00
2023-02-14T07:04:43.384Z,220.00
2023-02-14T07:05:43.353Z,228.00
2023-02-14T07:06:43.351Z,240.00
2023-02-14T07:07:43.351Z,252.00
2023-02-14T07:08:43.320Z,256.00
2023-02-14T07:09:43.347Z,268.00
2023-02-14T07:10:43.304Z,276.00
2023-02-14T07:11:43.285Z,284.00
2023-02-14T07:12:44.239Z,296.00
2023-02-14T07:13:43.264Z,304.00
2023-02-14T07:14:43.275Z,312.00
2023-02-14T07:15:43.311Z,324.00
2023-02-14T07:16:43.225Z,332.00
2023-02-14T07:17:43.258Z,344.00
2023-02-14T07:18:43.224Z,356.00
2023-02-14T07:19:43.196Z,360.00
2023-02-14T07:20:43.191Z,368.00
2023-02-14T07:21:43.215Z,376.00
2023-02-14T07:22:43.169Z,388.00
2023-02-14T07:23:43.168Z,396.00
2023-02-14T07:24:43.194Z,404.00
2023-02-14T07:25:43.135Z,412.00
2023-02-14T07:26:43.147Z,420.00
2023-02-14T07:27:43.134Z,424.00
2023-02-14T07:28:45.154Z,436.00
2023-02-14T07:29:43.126Z,440.00
2023-02-14T07:30:43.112Z,448.00
2023-02-14T07:31:43.176Z,456.00
2023-02-14T07:32:43.072Z,464.00
2023-02-14T07:33:43.457Z,472.00
2023-02-14T07:34:43.043Z,476.00
2023-02-14T07:35:43.078Z,488.00
2023-02-14T07:36:43.019Z,492.00
2023-02-14T07:37:43.014Z,500.00
2023-02-14T07:38:43.004Z,504.00
2023-02-14T07:39:42.980Z,508.00
2023-02-14T07:40:42.980Z,512.00
2023-02-14T07:41:42.991Z,520.00
2023-02-14T07:42:42.985Z,524.00
2023-02-14T07:43:42.929Z,532.00
2023-02-14T07:44:42.955Z,540.00
2023-02-14T07:45:42.921Z,544.00
2023-02-14T07:46:42.934Z,552.00
2023-02-14T07:47:42.890Z,556.00
2023-02-14T07:48:42.895Z,560.00
2023-02-14T07:49:42.883Z,564.00
2023-02-14T07:50:42.907Z,572.00
2023-02-14T07:51:42.844Z,576.00
2023-02-14T07:52:42.853Z,580.00
2023-02-14T07:53:42.827Z,584.00
2023-02-14T07:54:42.827Z,588.00
2023-02-14T07:55:42.801Z,596.00
2023-02-14T07:56:42.827Z,600.00
2023-02-14T07:57:42.784Z,604.00
2023-02-14T07:58:42.783Z,612.00
2023-02-14T07:59:42.751Z,616.00
2023-02-14T08:00:42.756Z,620.00
2023-02-14T08:01:42.797Z,624.00
2023-02-14T08:02:42.729Z,632.00
2023-02-14T08:03:42.714Z,636.00
2023-02-14T08:04:42.728Z,640.00
2023-02-14T08:05:42.731Z,644.00
2023-02-14T08:06:42.718Z,652.00
2023-02-14T08:07:42.674Z,652.00
2023-02-14T08:08:42.668Z,660.00
2023-02-14T08:09:42.645Z,660.00
2023-02-14T08:10:42.674Z,664.00
2023-02-14T08:11:42.644Z,668.00
2023-02-14T08:12:42.632Z,668.00
2023-02-14T08:13:42.596Z,676.00
2023-02-14T08:14:42.590Z,680.00
2023-02-14T08:15:42.620Z,688.00
2023-02-14T08:16:42.605Z,696.00
2023-02-14T08:17:42.554Z,700.00
2023-02-14T08:18:42.557Z,704.00
2023-02-14T08:19:42.562Z,708.00
2023-02-14T08:20:42.522Z,708.00
2023-02-14T08:21:42.540Z,712.00
2023-02-14T08:22:42.524Z,720.00
2023-02-14T08:23:42.492Z,728.00
2023-02-14T08:24:42.480Z,732.00
2023-02-14T08:25:42.495Z,736.00
2023-02-14T08:26:42.501Z,740.00
2023-02-14T08:27:42.444Z,744.00
2023-02-14T08:28:43.386Z,744.00
2023-02-14T08:29:42.423Z,748.00
2023-02-14T08:30:42.422Z,748.00
2023-02-14T08:31:42.477Z,752.00
2023-02-14T08:32:42.423Z,756.00
2023-02-14T08:33:43.328Z,760.00
2023-02-14T08:34:42.362Z,768.00
2023-02-14T08:35:42.381Z,768.00
2023-02-14T08:36:42.362Z,776.00
2023-02-14T08:37:42.379Z,776.00
2023-02-14T08:38:42.322Z,784.00
2023-02-14T08:39:42.318Z,784.00
2023-02-14T08:40:42.303Z,792.00
2023-02-14T08:41:42.302Z,796.00
2023-02-14T08:42:43.234Z,800.00
2023-02-14T08:43:42.305Z,804.00
2023-02-14T08:44:42.269Z,808.00
2023-02-14T08:45:42.270Z,812.00
2023-02-14T08:46:42.331Z,812.00
2023-02-14T08:47:42.263Z,820.00
2023-02-14T08:48:42.247Z,824.00
2023-02-14T08:49:42.197Z,824.00
2023-02-14T08:50:42.209Z,828.00
2023-02-14T08:51:42.216Z,832.00
2023-02-14T08:52:42.185Z,836.00
2023-02-14T08:53:42.207Z,844.00
2023-02-14T08:54:42.157Z,848.00
2023-02-14T08:55:42.161Z,852.00
2023-02-14T08:56:42.212Z,856.00
2023-02-14T08:57:42.149Z,860.00
2023-02-14T08:58:42.180Z,860.00
2023-02-14T08:59:42.146Z,868.00
2023-02-14T09:00:42.132Z,872.00
2023-02-14T09:01:43.086Z,876.00
2023-02-14T09:02:42.058Z,880.00
2023-02-14T09:03:42.112Z,880.00
2023-02-14T09:04:42.032Z,888.00
2023-02-14T09:05:42.023Z,888.00
2023-02-14T09:06:42.122Z,888.00
2023-02-14T09:07:42.034Z,896.00
2023-02-14T09:08:42.013Z,900.00
2023-02-14T09:09:42.019Z,904.00
2023-02-14T09:10:42.011Z,904.00
2023-02-14T09:11:41.951Z,912.00
2023-02-14T09:12:41.942Z,908.00
2023-02-14T09:13:41.958Z,912.00
2023-02-14T09:14:41.952Z,916.00
2023-02-14T09:15:41.931Z,920.00
2023-02-14T09:16:41.972Z,928.00
2023-02-14T09:17:41.919Z,928.00
2023-02-14T09:18:42.394Z,928.00
2023-02-14T09:19:41.908Z,936.00
2023-02-14T09:20:41.912Z,940.00
2023-02-14T09:21:41.914Z,940.00
2023-02-14T09:22:41.851Z,940.00
2023-02-14T09:23:41.830Z,948.00
2023-02-14T09:24:41.836Z,948.00
2023-02-14T09:25:41.799Z,952.00
2023-02-14T09:26:41.821Z,956.00
2023-02-14T09:27:41.817Z,960.00
2023-02-14T09:28:41.822Z,960.00
2023-02-14T09:29:41.756Z,964.00
2023-02-14T09:30:41.757Z,968.00
2023-02-14T09:31:41.850Z,972.00
2023-02-14T09:32:41.738Z,976.00
2023-02-14T09:33:41.754Z,976.00
2023-02-14T09:34:41.705Z,980.00
2023-02-14T09:35:41.702Z,980.00
2023-02-14T09:36:41.701Z,988.00
2023-02-14T09:37:41.730Z,988.00
2023-02-14T09:38:41.661Z,996.00
2023-02-14T09:39:41.703Z,1000.00
2023-02-14T09:40:41.645Z,1000.00
2023-02-14T09:41:41.628Z,1008.00
2023-02-14T09:42:41.616Z,1012.00
2023-02-14T09:43:41.633Z,1012.00
2023-02-14T09:44:41.600Z,1020.00
2023-02-14T09:45:41.638Z,1020.00
2023-02-14T09:46:41.581Z,1028.00
2023-02-14T09:47:41.560Z,1028.00
2023-02-14T09:48:41.570Z,1032.00
2023-02-14T09:49:41.629Z,1032.00
2023-02-14T09:50:42.337Z,1036.00
2023-02-14T09:51:41.826Z,1040.00
2023-02-14T09:52:41.531Z,1044.00
2023-02-14T09:53:41.519Z,1048.00
2023-02-14T09:54:41.481Z,1052.00
2023-02-14T09:55:41.479Z,1052.00
2023-02-14T09:56:50.586Z,1060.00
2023-02-14T09:57:43.429Z,1064.00
2023-02-14T09:58:41.506Z,1068.00
2023-02-14T09:59:41.441Z,1072.00
2023-02-14T10:00:41.500Z,1076.00
2023-02-14T10:01:41.418Z,1080.00
2023-02-14T10:02:41.410Z,1084.00
2023-02-14T10:03:41.434Z,1096.00
2023-02-14T10:04:41.414Z,1096.00
2023-02-14T10:05:41.414Z,1100.00
2023-02-14T10:06:41.545Z,1104.00
2023-02-14T10:07:41.369Z,1104.00
2023-02-14T10:08:41.383Z,1112.00
2023-02-14T10:09:41.370Z,1116.00
2023-02-14T10:10:41.314Z,1124.00
2023-02-14T10:11:41.294Z,1128.00
2023-02-14T10:12:41.300Z,1132.00
2023-02-14T10:13:41.309Z,1132.00
2023-02-14T10:14:41.266Z,1140.00
2023-02-14T10:15:41.256Z,1144.00
2023-02-14T10:16:41.265Z,1148.00
2023-02-14T10:17:41.245Z,1152.00
2023-02-14T10:18:41.233Z,1156.00
2023-02-14T10:19:41.241Z,1160.00
2023-02-14T10:20:41.214Z,1164.00
2023-02-14T10:21:41.197Z,1168.00
2023-02-14T10:22:41.951Z,1172.00
2023-02-14T10:23:41.165Z,1180.00
2023-02-14T10:24:41.166Z,1184.00
2023-02-14T10:25:41.165Z,1184.00
2023-02-14T10:26:41.244Z,1192.00
2023-02-14T10:27:41.127Z,1188.00
2023-02-14T10:28:41.141Z,1192.00
2023-02-14T10:29:41.090Z,1196.00
2023-02-14T10:30:41.164Z,1200.00
2023-02-14T10:31:42.084Z,1204.00
2023-02-14T10:32:42.037Z,1212.00
2023-02-14T10:33:41.077Z,1216.00
2023-02-14T10:34:41.253Z,1220.00
2023-02-14T10:35:41.978Z,1224.00
2023-02-14T10:36:41.028Z,1228.00
2023-02-14T10:37:41.046Z,1236.00
2023-02-14T10:38:41.001Z,1240.00
2023-02-14T10:39:41.016Z,1244.00
2023-02-14T10:40:41.062Z,1248.00
2023-02-14T10:41:40.995Z,1256.00
2023-02-14T10:42:40.951Z,1260.00
2023-02-14T10:43:40.986Z,1268.00
2023-02-14T10:44:40.988Z,1276.00
2023-02-14T10:45:40.973Z,1284.00
2023-02-14T10:46:40.945Z,1284.00
2023-02-14T10:47:40.905Z,1292.00
2023-02-14T10:48:40.906Z,1300.00
2023-02-14T10:49:40.886Z,1304.00
2023-02-14T10:50:40.884Z,1312.00
2023-02-14T10:51:41.004Z,1316.00
2023-02-14T10:52:40.847Z,1324.00
2023-02-14T10:53:40.840Z,1332.00
2023-02-14T10:54:40.834Z,1336.00
2023-02-14T10:55:40.826Z,1344.00
2023-02-14T10:56:40.901Z,1348.00
2023-02-14T10:57:40.804Z,1352.00
2023-02-14T10:58:40.791Z,1356.00
2023-02-14T10:59:40.778Z,1364.00
2023-02-14T11:00:42.227Z,1368.00
2023-02-14T11:01:40.816Z,1368.00
2023-02-14T11:02:40.955Z,1372.00
2023-02-14T11:03:43.773Z,1376.00
2023-02-14T11:04:40.710Z,1380.00
2023-02-14T11:05:42.820Z,1392.00
2023-02-14T11:06:41.140Z,1396.00
2023-02-14T11:07:40.693Z,1400.00
2023-02-14T11:08:40.863Z,1408.00
2023-02-14T11:09:40.668Z,1416.00
2023-02-14T11:10:40.655Z,1420.00
2023-02-14T11:11:40.766Z,1424.00
2023-02-14T11:12:40.624Z,1428.00
2023-02-14T11:13:40.675Z,1432.00
2023-02-14T11:14:40.766Z,1440.00
2023-02-14T11:15:40.599Z,1444.00
2023-02-14T11:16:42.086Z,1444.00
2023-02-14T11:17:42.048Z,1456.00
2023-02-14T11:18:42.034Z,1464.00
2023-02-14T11:19:40.577Z,1472.00
2023-02-14T11:20:40.674Z,1484.00
2023-02-14T11:21:40.562Z,1484.00
2023-02-14T11:22:40.712Z,1492.00
2023-02-14T11:23:40.530Z,1516.00
2023-02-14T11:24:41.299Z,1524.00
2023-02-14T11:25:40.623Z,1536.00
2023-02-14T11:26:40.489Z,1552.00
2023-02-14T11:27:40.561Z,1552.00
2023-02-14T11:28:42.144Z,1552.00
2023-02-14T11:29:40.487Z,1560.00
2023-02-14T11:30:41.940Z,1572.00
2023-02-14T11:31:41.032Z,1584.00
2023-02-14T11:32:40.495Z,1592.00
2023-02-14T11:33:40.430Z,1592.00
2023-02-14T11:34:40.414Z,1600.00
2023-02-14T11:35:40.504Z,1608.00
2023-02-14T11:36:40.367Z,1620.00
2023-02-14T11:37:40.364Z,1632.00
2023-02-14T11:38:41.319Z,1636.00
2023-02-14T11:39:41.900Z,1644.00
2023-02-14T11:40:40.358Z,1652.00
2023-02-14T11:41:41.134Z,1640.00
2023-02-14T11:42:40.578Z,1632.00
2023-02-14T11:43:40.343Z,1640.00
2023-02-14T11:44:40.609Z,1648.00
2023-02-14T11:45:40.291Z,1660.00
2023-02-14T11:46:52.242Z,1664.00
2023-02-14T11:47:41.361Z,1664.00
2023-02-14T11:48:40.284Z,1672.00
2023-02-14T11:49:40.223Z,1680.00
2023-02-14T11:50:40.213Z,1688.00
2023-02-14T11:51:40.401Z,1688.00
2023-02-14T11:52:40.366Z,1696.00
2023-02-14T11:53:40.424Z,1704.00
2023-02-14T11:54:40.155Z,1716.00
2023-02-14T11:55:41.105Z,1724.00
2023-02-14T11:56:40.163Z,1724.00
2023-02-14T11:57:40.138Z,1724.00
2023-02-14T11:58:40.573Z,1732.00
2023-02-14T11:59:40.434Z,1740.00
2023-02-14T12:00:40.087Z,1744.00
2023-02-14T12:01:40.085Z,1752.00
2023-02-14T12:02:40.721Z,1760.00
2023-02-14T12:03:41.066Z,1764.00
2023-02-14T12:04:46.315Z,1776.00
2023-02-14T12:05:41.057Z,1772.00
2023-02-14T12:06:40.029Z,1780.00
2023-02-14T12:07:40.976Z,1788.00
2023-02-14T12:08:40.054Z,1792.00
2023-02-14T12:09:40.040Z,1796.00
2023-02-14T12:10:40.158Z,1800.00
2023-02-14T12:11:39.980Z,1816.00
2023-02-14T12:12:39.975Z,1824.00
2023-02-14T12:13:40.004Z,1824.00
2023-02-14T12:14:39.954Z,1820.00
2023-02-14T12:15:39.992Z,1820.00
2023-02-14T12:16:39.939Z,1828.00
2023-02-14T12:17:39.952Z,1848.00
2023-02-14T12:18:39.940Z,1880.00
2023-02-14T12:19:39.876Z,1916.00
2023-02-14T12:20:39.872Z,1956.00
2023-02-14T12:21:39.864Z,1984.00
2023-02-14T12:22:39.927Z,2004.00
2023-02-14T12:23:39.872Z,2012.00
2023-02-14T12:24:39.845Z,2020.00
2023-02-14T12:25:39.863Z,2028.00
2023-02-14T12:26:39.803Z,2020.00
2023-02-14T12:27:39.836Z,2016.00
2023-02-14T12:28:39.800Z,2024.00
2023-02-14T12:29:39.798Z,2068.00
2023-02-14T12:30:39.792Z,2132.00
2023-02-14T12:31:39.911Z,2236.00
2023-02-14T12:32:39.753Z,2404.00
2023-02-14T12:33:39.744Z,2736.00
2023-02-14T12:34:39.723Z,11712.00
2023-02-14T12:35:39.716Z,22848.00
2023-02-14T12:36:39.745Z,10064.00
2023-02-14T12:37:39.702Z,2632.00
2023-02-14T12:38:39.675Z,2548.00
2023-02-14T12:39:39.661Z,2592.00
2023-02-14T12:40:39.662Z,2660.00
2023-02-14T12:41:39.655Z,2768.00
2023-02-14T12:42:39.622Z,2968.00
2023-02-14T12:43:39.648Z,3276.00
2023-02-14T12:44:39.640Z,3800.00
2023-02-14T12:45:39.601Z,13024.00
2023-02-14T12:46:39.601Z,29344.00
2023-02-14T12:47:40.546Z,33728.00